首页
METAR-TAF:

METAR-TAF

机场 :

本-古里安国际机场

特拉维夫 / 本·古里安, 以色列

纬度: 32-00N, 经度: 034-54E, 海拔: 40米

当前天气观测

该预报发布于25分钟前的23:50 UTC
风速12节,风向
温度 12°C
湿度 94%
气压 1015 hPa
能见度10公里或以上
少量云层高于2000英尺
散云层高于2600英尺

METAR: LLBG 232350Z 18012KT 9999 FEW020 SCT026 12/11 Q1015 TEMPO 7000 RA SCT010 FEW015TCU BKN025 RMK BKN080 RERA

时间: 02:15 (00:15 UTC)

预报

该预报发布于50分钟前的23:25 UTC
预报有效从24日的 00点(UTC)到 24日的 24点(UTC)
风速16节,风向西南
能见度10公里或以上
多云层高于3000英尺
短暂存在
从 24日的 00点(UTC)到 24日的 02点(UTC)
风速20节,风向西转西南,有时为30节阵风
能見度: 7000
少量云层高于2500英尺, 塔状积云.
多云层高于3000英尺
从 24日的 0200点(UTC)
风速18节,风向西北
能见度10公里或以上
多云层高于3000英尺
短暂存在
从 24日的 02点(UTC)到 24日的 11点(UTC)
风速22节,风向,有时为35节阵风
能見度: 5000
散云层高于1500英尺
少量云层高于2000英尺, 积雨云.
多云层高于2500英尺
雷暴, 雨
几率 30%
从 24日的 11点(UTC)到 24日的 15点(UTC)
多云层高于2500英尺
小雨
成为
从 24日的 15点(UTC)到 24日的 17点(UTC)
风速7节,风向北转东北
少量云层高于4000英尺

TAF: LLBG 232325Z 2400/2424 22016KT 9999 BKN030 TEMPO 2400/2402 24020G30KT 7000 RA FEW025TCU BKN030 FM240200 32018KT 9999 BKN030 TEMPO 2402/2411 35022G35KT 5000 TSRA SCT015 FEW020CB BKN025 PROB30 2411/2415 -RA BKN025 BECMG 2415/2417 02007KT FEW040 TX13/2412Z TN11/2404Z

超过4000个机场的气象观测和天气预报(METAR&TAF报告)。

可查询的气象台以黄色和红色小点在地图上表示。

将鼠标移到小点上方,可查看气象台名称。

然后点击查看天气观测和预报。

如需切换地图:点击带黑十字的绿色按钮放大地图;点击带横线的绿色按钮缩小地图;或者点击绿色箭头查看邻近地区的地图。


METAR-TAF: